Time;durP1;ratioP1;P1;durP2;ratioP2;P2;SDS_P1;SDS_P2;PMS_P1;PMS_P2;Temp;Humidity;BMP_temperature;BMP_pressure;BME280_temperature;BME280_humidity;BME280_pressure;Samples;Min_cycle;Max_cycle;Signal;HPM_P1;HPM_P2
2022/01/29 00:02:01;;;;;;;7.50;2.95;;;21.40;66.40;;;;;;7812371;28;20178;-54
2022/01/29 00:05:46;;;;;;;9.73;3.22;;;21.40;66.40;;;;;;7812142;28;20266;-54
2022/01/29 00:09:31;;;;;;;10.23;2.42;;;21.30;66.40;;;;;;7811750;28;20206;-55
2022/01/29 00:13:17;;;;;;;6.45;2.65;;;21.30;66.40;;;;;;7812224;28;20188;-56
2022/01/29 00:17:03;;;;;;;10.50;2.13;;;21.30;66.50;;;;;;7812257;28;20282;-56
2022/01/29 00:20:49;;;;;;;7.13;2.70;;;21.20;66.50;;;;;;7812007;28;20252;-56
2022/01/29 00:24:34;;;;;;;12.27;3.03;;;21.20;66.50;;;;;;7811953;28;20178;-56
2022/01/29 00:28:20;;;;;;;7.07;2.40;;;21.10;67.30;;;;;;7811360;28;20195;-55
2022/01/29 00:32:06;;;;;;;8.98;2.60;;;21.10;66.50;;;;;;7811555;28;20236;-54
2022/01/29 00:35:52;;;;;;;6.95;2.58;;;21.10;66.50;;;;;;7811341;28;20174;-55
2022/01/29 00:39:37;;;;;;;5.82;1.98;;;21.00;66.50;;;;;;7810910;28;20195;-55
2022/01/29 00:43:23;;;;;;;6.80;2.42;;;21.00;66.60;;;;;;7811091;28;20650;-55
2022/01/29 00:47:08;;;;;;;5.60;2.30;;;20.90;66.50;;;;;;7810920;28;20198;-54
2022/01/29 00:50:54;;;;;;;12.18;2.35;;;20.90;66.60;;;;;;7809507;28;20203;-57
2022/01/29 00:54:42;;;;;;;7.75;2.35;;;20.90;66.60;;;;;;7810865;28;20348;-57
2022/01/29 00:58:27;;;;;;;6.05;2.45;;;20.90;66.70;;;;;;7810378;28;20289;-55
2022/01/29 01:02:13;;;;;;;6.85;2.45;;;20.80;66.70;;;;;;7810602;28;20183;-57
2022/01/29 01:05:59;;;;;;;8.50;2.15;;;20.80;66.70;;;;;;7810379;28;20644;-57
2022/01/29 01:09:44;;;;;;;4.25;2.20;;;20.70;66.60;;;;;;7810055;28;20667;-54
2022/01/29 01:13:31;;;;;;;7.60;1.90;;;20.70;66.70;;;;;;7810211;28;20175;-56
2022/01/29 01:17:18;;;;;;;5.10;2.03;;;20.70;67.70;;;;;;7810121;28;20210;-55
2022/01/29 01:21:03;;;;;;;4.68;1.92;;;20.60;66.70;;;;;;7809932;28;20209;-57
2022/01/29 01:24:49;;;;;;;7.10;2.10;;;20.60;66.70;;;;;;7809336;28;20167;-57
2022/01/29 01:28:34;;;;;;;5.18;2.15;;;20.60;66.80;;;;;;7809461;28;20202;-56
2022/01/29 01:32:20;;;;;;;8.07;2.53;;;20.50;66.70;;;;;;7809745;28;20644;-57
2022/01/29 01:36:07;;;;;;;8.45;1.92;;;20.50;66.80;;;;;;7810061;28;20189;-57
2022/01/29 01:39:53;;;;;;;5.95;2.30;;;20.40;66.70;;;;;;7809695;28;20564;-55
2022/01/29 01:43:38;;;;;;;5.45;2.05;;;20.40;66.80;;;;;;7810080;28;20170;-54
2022/01/29 01:47:24;;;;;;;3.88;1.77;;;20.40;66.90;;;;;;7809419;28;20195;-54
2022/01/29 01:51:10;;;;;;;7.43;2.50;;;20.30;66.80;;;;;;7809020;28;20191;-54
2022/01/29 01:54:55;;;;;;;4.88;1.95;;;20.30;66.90;;;;;;7809132;28;20198;-54
2022/01/29 01:58:41;;;;;;;3.70;1.83;;;20.30;66.90;;;;;;7808821;28;20713;-53
2022/01/29 02:02:26;;;;;;;4.93;2.13;;;20.20;66.90;;;;;;7808813;28;20178;-54
2022/01/29 02:06:13;;;;;;;6.30;1.73;;;20.20;66.90;;;;;;7808727;28;20178;-55
2022/01/29 02:09:58;;;;;;;5.78;1.95;;;20.20;67.00;;;;;;7808224;28;20221;-54
2022/01/29 02:13:44;;;;;;;5.05;1.90;;;20.20;66.90;;;;;;7808457;28;20178;-53
2022/01/29 02:17:29;;;;;;;5.15;1.63;;;20.20;66.90;;;;;;7808130;28;20236;-56
2022/01/29 02:21:16;;;;;;;5.22;1.90;;;20.10;66.90;;;;;;7808211;28;20199;-53
2022/01/29 02:25:02;;;;;;;4.95;1.63;;;20.10;66.80;;;;;;7808109;28;20543;-55
2022/01/29 02:28:47;;;;;;;2.55;1.20;;;20.10;66.90;;;;;;7807772;28;20199;-52
2022/01/29 02:32:41;;;;;;;4.88;2.03;;;20.10;66.90;;;;;;7807917;28;20308;-56
2022/01/29 02:36:26;;;;;;;3.13;1.50;;;20.00;66.90;;;;;;7807954;28;20226;-53
2022/01/29 02:40:12;;;;;;;4.28;1.85;;;20.00;66.90;;;;;;7807412;28;20195;-54
2022/01/29 02:44:03;;;;;;;3.85;1.85;;;20.00;66.90;;;;;;7807708;28;20657;-57
2022/01/29 02:47:49;;;;;;;8.50;1.92;;;19.90;67.00;;;;;;7807155;28;20659;-53
2022/01/29 02:51:34;;;;;;;7.72;2.15;;;19.90;67.00;;;;;;7807567;28;20551;-56
2022/01/29 02:55:19;;;;;;;3.92;1.83;;;19.90;67.00;;;;;;7807476;28;20244;-57
2022/01/29 02:59:05;;;;;;;3.80;1.30;;;19.90;67.10;;;;;;7807137;28;20210;-55
2022/01/29 03:02:51;;;;;;;6.03;1.95;;;19.80;67.00;;;;;;7807695;28;20175;-57
2022/01/29 03:06:36;;;;;;;5.10;2.08;;;19.80;67.00;;;;;;7807686;28;20626;-56
2022/01/29 03:10:23;;;;;;;7.45;1.50;;;19.80;67.00;;;;;;7807067;28;20197;-57
2022/01/29 03:14:08;;;;;;;5.95;1.60;;;19.80;67.00;;;;;;7806875;28;20183;-55
2022/01/29 03:17:54;;;;;;;2.33;1.50;;;19.70;67.00;;;;;;7806930;28;20206;-56
2022/01/29 03:21:39;;;;;;;5.13;1.70;;;19.70;67.00;;;;;;7807437;28;20175;-57
2022/01/29 03:25:25;;;;;;;6.70;1.75;;;19.70;67.00;;;;;;7807186;28;20175;-54
2022/01/29 03:29:10;;;;;;;5.63;2.03;;;19.70;67.00;;;;;;7806613;28;20190;-54
2022/01/29 03:32:56;;;;;;;5.57;1.60;;;19.70;67.00;;;;;;7806831;28;20194;-55
2022/01/29 03:36:42;;;;;;;3.83;1.52;;;19.70;67.00;;;;;;7806797;28;20198;-57
2022/01/29 03:40:29;;;;;;;2.70;1.60;;;19.60;67.00;;;;;;7806570;28;20186;-56
2022/01/29 03:44:14;;;;;;;2.80;1.50;;;19.60;67.10;;;;;;7806919;28;20178;-52
2022/01/29 03:48:00;;;;;;;3.75;1.50;;;19.60;67.10;;;;;;7806251;28;20197;-53
2022/01/29 03:51:46;;;;;;;4.85;1.40;;;19.50;67.10;;;;;;7806743;28;20179;-55
2022/01/29 03:55:31;;;;;;;6.68;1.75;;;19.50;67.10;;;;;;7806552;28;20186;-57
2022/01/29 03:59:17;;;;;;;4.65;1.65;;;19.50;67.10;;;;;;7806539;28;20596;-54
2022/01/29 04:03:02;;;;;;;6.63;1.45;;;19.50;68.00;;;;;;7806446;28;20225;-55
2022/01/29 04:06:50;;;;;;;4.22;1.50;;;19.50;67.10;;;;;;7806458;28;20187;-54
2022/01/29 04:10:35;;;;;;;4.28;1.35;;;19.50;67.10;;;;;;7806256;28;20191;-52
2022/01/29 04:14:21;;;;;;;4.32;1.40;;;19.40;67.10;;;;;;7806501;28;20253;-57
2022/01/29 04:18:07;;;;;;;4.57;1.45;;;19.40;67.10;;;;;;7806474;28;20268;-54
2022/01/29 04:21:52;;;;;;;7.30;1.40;;;19.40;67.20;;;;;;7806800;28;20167;-54
2022/01/29 04:25:38;;;;;;;3.15;1.48;;;19.40;67.30;;;;;;7809117;28;20183;-54
2022/01/29 04:29:24;;;;;;;5.28;1.42;;;19.30;67.20;;;;;;7811381;28;20191;-52
2022/01/29 04:37:05;;;;;;;4.07;1.70;;;19.30;68.10;;;;;;7811495;28;20226;-56
2022/01/29 04:40:52;;;;;;;2.63;1.20;;;19.30;67.20;;;;;;7811302;28;20202;-57
2022/01/29 04:44:37;;;;;;;5.85;1.58;;;19.30;67.20;;;;;;7811249;28;20601;-54
2022/01/29 04:48:23;;;;;;;4.45;1.50;;;19.30;67.20;;;;;;7810691;28;20214;-56
2022/01/29 04:52:08;;;;;;;4.43;1.30;;;19.20;67.20;;;;;;7810970;28;20183;-52
2022/01/29 04:55:54;;;;;;;3.65;1.58;;;19.20;67.30;;;;;;7810903;28;20263;-58
2022/01/29 04:59:39;;;;;;;6.30;1.75;;;19.20;67.30;;;;;;7810284;28;20242;-57
2022/01/29 05:03:25;;;;;;;4.72;1.50;;;19.20;67.30;;;;;;7810654;28;20609;-54
2022/01/29 05:07:10;;;;;;;3.83;1.52;;;19.20;68.30;;;;;;7810479;28;20213;-57
2022/01/29 05:10:56;;;;;;;3.88;1.40;;;19.10;67.30;;;;;;7810079;28;20282;-57
2022/01/29 05:14:58;;;;;;;4.97;1.45;;;19.10;67.30;;;;;;7810186;28;20592;-56
2022/01/29 05:27:03;;;;;;;5.68;1.60;;;19.10;67.50;;;;;;7801236;28;20719;-55
2022/01/29 05:30:48;;;;;;;2.95;1.50;;;19.10;67.40;;;;;;7809531;28;20191;-56
2022/01/29 05:34:35;;;;;;;3.15;1.38;;;19.10;67.40;;;;;;7809706;28;20217;-57
2022/01/29 05:38:20;;;;;;;6.43;1.30;;;19.10;67.50;;;;;;7808806;28;20210;-57
2022/01/29 05:42:06;;;;;;;4.00;1.42;;;19.10;67.50;;;;;;7809428;28;20714;-57
2022/01/29 05:45:52;;;;;;;4.55;1.30;;;19.10;67.50;;;;;;7809296;28;20190;-56
2022/01/29 05:49:37;;;;;;;6.32;1.20;;;19.10;67.50;;;;;;7808997;28;20730;-52
2022/01/29 05:53:23;;;;;;;3.92;1.33;;;19.10;67.40;;;;;;7809201;28;20182;-55
2022/01/29 05:57:09;;;;;;;4.78;1.40;;;19.10;67.50;;;;;;7809112;28;20205;-53
2022/01/29 06:00:55;;;;;;;5.63;1.60;;;19.10;67.50;;;;;;7808765;28;20194;-53
2022/01/29 06:04:40;;;;;;;4.05;1.40;;;19.20;67.50;;;;;;7807356;28;20189;-53
2022/01/29 06:08:25;;;;;;;1.58;1.00;;;19.20;67.50;;;;;;7809738;28;20214;-54
2022/01/29 06:12:11;;;;;;;6.80;1.38;;;19.20;68.40;;;;;;7808289;28;20257;-53
2022/01/29 06:15:57;;;;;;;5.68;1.20;;;19.20;67.20;;;;;;7808761;28;20241;-55
2022/01/29 06:19:42;;;;;;;6.13;1.33;;;19.20;67.20;;;;;;7808073;28;20263;-52
2022/01/29 06:23:32;;;;;;;6.75;1.60;;;19.20;67.20;;;;;;7808301;28;20170;-53
2022/01/29 06:27:17;;;;;;;5.93;1.40;;;19.20;67.10;;;;;;7808281;28;20182;-55
2022/01/29 06:31:04;;;;;;;4.22;1.30;;;19.20;67.00;;;;;;7807517;28;20213;-56
2022/01/29 06:34:49;;;;;;;4.00;1.23;;;19.20;66.90;;;;;;7808005;28;20539;-56
2022/01/29 06:38:35;;;;;;;4.75;1.63;;;19.20;66.60;;;;;;7807422;28;20210;-56
2022/01/29 06:42:20;;;;;;;14.38;1.67;;;19.20;66.40;;;;;;7828500;28;20194;-57
2022/01/29 06:46:06;;;;;;;6.03;1.77;;;19.30;66.40;;;;;;7813493;28;20196;-52
2022/01/29 06:49:51;;;;;;;11.15;1.70;;;19.30;66.30;;;;;;7836725;28;20206;-55
2022/01/29 06:53:37;;;;;;;8.32;1.90;;;19.20;66.20;;;;;;7830015;28;20194;-53
2022/01/29 06:57:22;;;;;;;8.38;1.70;;;19.30;66.20;;;;;;7835753;28;20210;-56
2022/01/29 07:01:08;;;;;;;12.60;1.80;;;19.30;66.10;;;;;;7806385;28;20210;-56
2022/01/29 07:04:53;;;;;;;8.40;1.85;;;19.30;66.20;;;;;;7808644;28;20182;-57
2022/01/29 07:08:39;;;;;;;7.65;2.15;;;19.30;66.40;;;;;;7814245;28;20234;-56
2022/01/29 07:12:26;;;;;;;14.88;2.53;;;19.30;65.90;;;;;;7811278;28;20184;-55
2022/01/29 07:16:11;;;;;;;18.80;1.98;;;19.30;65.80;;;;;;7825601;28;20185;-59
2022/01/29 07:19:57;;;;;;;24.63;2.65;;;19.40;66.00;;;;;;7806918;28;20210;-56
2022/01/29 07:23:42;;;;;;;24.73;2.47;;;19.40;66.00;;;;;;7807197;28;20183;-56
2022/01/29 07:27:27;;;;;;;25.13;2.78;;;19.40;66.00;;;;;;7806914;28;20171;-56
2022/01/29 07:31:13;;;;;;;18.13;2.58;;;19.40;65.70;;;;;;7806958;28;20190;-57
2022/01/29 07:34:59;;;;;;;35.95;2.95;;;19.50;65.70;;;;;;7806714;28;20195;-57
2022/01/29 07:38:44;;;;;;;22.05;3.28;;;19.50;65.70;;;;;;7806685;28;20210;-57
2022/01/29 07:42:29;;;;;;;19.58;2.78;;;19.40;65.60;;;;;;7806914;28;20669;-57
2022/01/29 07:46:15;;;;;;;10.20;2.53;;;19.50;65.70;;;;;;7806691;28;20199;-57
2022/01/29 07:50:00;;;;;;;5.47;2.50;;;19.50;65.70;;;;;;7806412;28;20597;-56
2022/01/29 07:53:46;;;;;;;23.95;2.78;;;19.50;65.70;;;;;;7806696;28;20167;-53
2022/01/29 07:57:31;;;;;;;12.55;2.63;;;19.50;66.00;;;;;;7806252;28;20210;-53
2022/01/29 08:01:17;;;;;;;19.23;3.08;;;19.50;65.90;;;;;;7811421;28;20241;-55
2022/01/29 08:05:03;;;;;;;23.30;2.90;;;19.50;64.80;;;;;;7812796;28;20638;-56
2022/01/29 08:08:49;;;;;;;18.45;3.20;;;19.50;65.40;;;;;;7811779;28;20201;-54
2022/01/29 08:12:35;;;;;;;16.98;2.88;;;19.50;65.30;;;;;;7811909;28;20329;-54
2022/01/29 08:16:20;;;;;;;19.17;2.60;;;19.50;65.30;;;;;;7811875;28;20179;-53
2022/01/29 08:20:06;;;;;;;6.95;2.20;;;19.50;65.40;;;;;;7811571;28;20870;-55
2022/01/29 08:23:52;;;;;;;8.45;2.67;;;19.50;65.40;;;;;;7811737;28;20170;-56
2022/01/29 08:27:37;;;;;;;11.65;2.67;;;19.50;65.50;;;;;;7811402;28;20179;-56
2022/01/29 08:31:23;;;;;;;30.25;3.53;;;19.50;65.70;;;;;;7811462;28;20556;-55
2022/01/29 08:35:12;;;;;;;17.00;3.10;;;19.60;65.40;;;;;;7826685;28;20190;-52
2022/01/29 08:38:58;;;;;;;24.20;3.67;;;19.60;64.90;;;;;;7841844;28;20571;-56
2022/01/29 08:42:43;;;;;;;9.13;3.05;;;19.50;65.00;;;;;;7842107;28;20248;-56
2022/01/29 08:46:29;;;;;;;17.73;2.47;;;19.50;65.10;;;;;;7842264;28;20189;-56
2022/01/29 08:50:15;;;;;;;19.13;3.75;;;19.50;65.10;;;;;;7841682;28;20281;-54
2022/01/29 08:54:00;;;;;;;21.45;3.00;;;19.50;65.20;;;;;;7841882;28;20189;-55
2022/01/29 08:57:46;;;;;;;12.43;2.90;;;19.50;65.30;;;;;;7841443;28;20232;-54
2022/01/29 09:01:31;;;;;;;16.83;3.28;;;19.60;65.40;;;;;;7841569;28;20552;-56
2022/01/29 09:05:18;;;;;;;12.88;2.95;;;19.50;65.30;;;;;;7841795;28;20181;-55
2022/01/29 09:09:04;;;;;;;13.55;3.20;;;19.60;66.20;;;;;;7841457;28;20327;-57
2022/01/29 09:12:49;;;;;;;22.67;2.47;;;19.60;65.40;;;;;;7840875;28;20182;-56
2022/01/29 09:16:35;;;;;;;10.20;2.85;;;19.60;65.40;;;;;;7841270;28;20560;-57
2022/01/29 09:20:20;;;;;;;10.43;2.70;;;19.60;65.40;;;;;;7840931;28;20609;-57
2022/01/29 09:24:06;;;;;;;14.75;2.78;;;19.60;65.40;;;;;;7824196;28;20186;-53
2022/01/29 09:27:52;;;;;;;7.60;2.53;;;19.60;65.40;;;;;;7809684;28;20233;-57
2022/01/29 09:31:38;;;;;;;9.63;2.45;;;19.60;65.40;;;;;;7809857;28;20174;-55
2022/01/29 09:35:24;;;;;;;55.47;4.32;;;19.60;65.40;;;;;;7809696;28;20186;-57
2022/01/29 09:39:10;;;;;;;25.23;3.25;;;19.60;65.70;;;;;;7809219;28;20221;-58
2022/01/29 09:42:57;;;;;;;44.58;3.72;;;19.60;65.60;;;;;;7809528;28;20171;-56
2022/01/29 09:46:46;;;;;;;16.48;2.42;;;19.60;65.60;;;;;;7809293;28;20213;-56
2022/01/29 09:50:38;;;;;;;16.08;2.85;;;19.60;65.60;;;;;;7808988;28;20263;-57
2022/01/29 09:54:24;;;;;;;36.58;4.00;;;19.60;65.50;;;;;;7809197;28;20535;-55
2022/01/29 09:58:10;;;;;;;12.05;2.45;;;19.60;65.60;;;;;;7808854;28;20210;-53
2022/01/29 10:01:55;;;;;;;11.88;2.90;;;19.60;65.70;;;;;;7809302;28;20167;-52
2022/01/29 10:05:43;;;;;;;21.30;2.97;;;19.60;65.70;;;;;;7808894;28;20175;-54
2022/01/29 10:09:33;;;;;;;25.73;2.63;;;19.60;65.70;;;;;;7808405;28;20691;-54
2022/01/29 10:13:32;;;;;;;19.17;2.58;;;19.60;65.70;;;;;;7808687;28;20186;-51
2022/01/29 10:17:43;;;;;;;21.33;2.80;;;19.60;65.70;;;;;;7808587;28;20234;-52
2022/01/29 10:21:34;;;;;;;10.77;2.47;;;19.60;65.80;;;;;;7808066;28;20547;-52
2022/01/29 10:25:30;;;;;;;19.73;2.10;;;19.60;65.80;;;;;;7808765;28;20192;-55
2022/01/29 10:29:26;;;;;;;8.98;2.53;;;19.60;65.80;;;;;;7808205;28;20212;-55
2022/01/29 10:33:16;;;;;;;9.98;2.50;;;19.60;65.70;;;;;;7808538;28;20214;-54
2022/01/29 10:37:14;;;;;;;9.10;2.13;;;19.60;65.70;;;;;;7808084;28;20202;-51
2022/01/29 10:41:23;;;;;;;12.65;1.90;;;19.60;65.80;;;;;;7807611;28;20267;-51
2022/01/29 10:45:09;;;;;;;17.27;2.63;;;19.60;65.90;;;;;;7807666;28;20250;-55
2022/01/29 10:48:56;;;;;;;9.15;2.30;;;19.60;65.70;;;;;;7807368;28;20573;-55
2022/01/29 10:52:42;;;;;;;11.60;2.22;;;19.60;65.70;;;;;;7821723;28;20239;-53
2022/01/29 10:56:27;;;;;;;8.48;1.80;;;19.60;65.80;;;;;;7823111;28;20179;-52
2022/01/29 11:00:22;;;;;;;19.08;2.25;;;19.60;65.90;;;;;;7830866;28;20189;-54
2022/01/29 11:04:08;;;;;;;12.32;2.00;;;19.60;66.00;;;;;;7812033;28;20605;-52
2022/01/29 11:07:55;;;;;;;7.47;2.20;;;19.60;65.90;;;;;;7806888;28;20244;-51
2022/01/29 11:11:42;;;;;;;10.95;2.05;;;19.60;65.90;;;;;;7807208;28;20599;-55
2022/01/29 11:15:29;;;;;;;11.18;1.95;;;19.60;65.80;;;;;;7807382;28;20201;-53
2022/01/29 11:19:16;;;;;;;16.20;2.00;;;19.50;65.80;;;;;;7806795;28;20214;-52
2022/01/29 11:23:03;;;;;;;12.05;2.08;;;19.60;66.00;;;;;;7807085;28;20296;-51
2022/01/29 11:26:49;;;;;;;9.20;1.98;;;19.50;65.70;;;;;;7807001;28;20194;-53
2022/01/29 11:30:35;;;;;;;11.57;2.72;;;19.50;65.70;;;;;;7812758;28;20828;-51
2022/01/29 11:34:21;;;;;;;10.38;2.00;;;19.50;65.80;;;;;;7840211;28;20201;-54
2022/01/29 11:38:08;;;;;;;6.38;2.22;;;19.60;66.00;;;;;;7829537;28;20260;-55
2022/01/29 11:42:12;;;;;;;15.75;2.20;;;19.60;65.90;;;;;;7813217;28;20209;-55
2022/01/29 11:46:20;;;;;;;16.65;2.83;;;19.60;65.90;;;;;;7812876;28;20197;-54
2022/01/29 11:50:27;;;;;;;9.10;1.98;;;19.60;66.00;;;;;;7812740;28;20688;-55
2022/01/29 11:54:16;;;;;;;14.35;2.20;;;19.50;66.00;;;;;;7812768;28;20174;-54
2022/01/29 11:58:16;;;;;;;14.85;2.63;;;19.50;66.00;;;;;;7812442;28;20213;-51
2022/01/29 12:02:24;;;;;;;14.80;2.90;;;19.50;66.00;;;;;;7812597;28;20170;-52
2022/01/29 12:10:14;;;;;;;19.45;3.50;;;19.50;66.00;;;;;;7843416;28;20186;-52
2022/01/29 12:14:12;;;;;;;15.82;2.97;;;19.50;66.00;;;;;;7843423;28;20170;-52
2022/01/29 12:17:59;;;;;;;16.33;2.83;;;19.50;66.00;;;;;;7842749;28;20205;-51
2022/01/29 12:21:45;;;;;;;15.02;2.60;;;19.50;66.10;;;;;;7843109;28;20174;-52
2022/01/29 12:25:31;;;;;;;14.95;2.90;;;19.50;66.20;;;;;;7842814;28;20170;-55
2022/01/29 12:29:17;;;;;;;9.48;2.25;;;19.50;66.30;;;;;;7817347;28;20301;-51
2022/01/29 12:33:14;;;;;;;21.48;2.83;;;19.50;66.50;;;;;;7811666;28;20182;-54
2022/01/29 12:37:26;;;;;;;9.75;2.67;;;19.50;66.20;;;;;;7811467;28;20198;-51
2022/01/29 12:41:28;;;;;;;21.92;3.45;;;19.50;66.10;;;;;;7809112;28;20211;-55
2022/01/29 12:45:19;;;;;;;16.45;3.50;;;19.50;66.20;;;;;;7836648;28;20247;-54
2022/01/29 12:49:12;;;;;;;19.67;2.85;;;19.50;66.00;;;;;;7841669;28;20582;-53
2022/01/29 12:53:16;;;;;;;13.73;3.10;;;19.50;66.30;;;;;;7841927;28;20180;-51
2022/01/29 12:57:02;;;;;;;24.05;4.38;;;19.50;66.30;;;;;;7841850;28;20214;-51
2022/01/29 13:01:07;;;;;;;18.58;3.15;;;19.50;66.20;;;;;;7841583;28;20256;-51
2022/01/29 13:04:53;;;;;;;17.27;3.50;;;19.50;66.20;;;;;;7841584;28;20174;-55
2022/01/29 13:08:39;;;;;;;16.05;3.30;;;19.50;66.20;;;;;;7841110;28;20202;-51
2022/01/29 13:12:25;;;;;;;12.98;3.03;;;19.50;66.20;;;;;;7841350;28;20185;-51
2022/01/29 13:16:10;;;;;;;11.55;2.40;;;19.50;66.30;;;;;;7841212;28;20675;-51
2022/01/29 13:19:56;;;;;;;16.23;2.90;;;19.50;66.20;;;;;;7840657;28;20588;-51
2022/01/29 13:23:42;;;;;;;11.00;3.38;;;19.50;66.40;;;;;;7841059;28;20570;-56
2022/01/29 13:27:34;;;;;;;16.33;4.97;;;19.50;66.30;;;;;;7840673;28;20209;-57
2022/01/29 13:31:20;;;;;;;15.30;3.90;;;19.50;65.10;;;;;;7840668;28;20198;-52
2022/01/29 13:35:22;;;;;;;21.05;4.25;;;19.50;65.50;;;;;;7834488;28;20171;-52
2022/01/29 13:39:10;;;;;;;23.20;4.00;;;19.40;65.70;;;;;;7840393;28;20279;-52
2022/01/29 13:42:58;;;;;;;13.07;4.13;;;19.40;65.90;;;;;;7840562;28;20532;-55
2022/01/29 13:46:43;;;;;;;14.07;4.10;;;19.40;65.90;;;;;;7840247;28;20194;-56
2022/01/29 13:50:38;;;;;;;17.60;3.97;;;19.40;65.90;;;;;;7839982;28;20702;-55
2022/01/29 13:54:24;;;;;;;11.32;4.20;;;19.50;66.00;;;;;;7840372;28;20185;-57
2022/01/29 13:58:11;;;;;;;17.88;3.80;;;19.60;66.20;;;;;;7839471;28;20221;-56
2022/01/29 14:02:01;;;;;;;6.22;3.22;;;19.60;66.20;;;;;;7840160;28;20640;-52
2022/01/29 14:05:47;;;;;;;6.38;3.67;;;19.90;66.20;;;;;;7840159;28;20176;-51
2022/01/29 14:09:45;;;;;;;12.52;4.28;;;20.10;66.00;;;;;;7840222;28;20194;-53
2022/01/29 14:13:30;;;;;;;14.02;3.60;;;20.40;65.80;;;;;;7839765;28;20198;-51
2022/01/29 14:17:17;;;;;;;11.00;3.50;;;20.70;65.50;;;;;;7839427;28;20206;-54
2022/01/29 14:21:03;;;;;;;6.75;3.10;;;20.90;65.30;;;;;;7821441;28;20249;-52
2022/01/29 14:24:48;;;;;;;9.95;3.22;;;21.10;65.10;;;;;;7808309;28;20258;-53
2022/01/29 14:28:34;;;;;;;12.32;3.30;;;21.30;65.10;;;;;;7807969;28;20217;-52
2022/01/29 14:32:21;;;;;;;6.47;3.17;;;21.50;64.90;;;;;;7808090;28;20190;-51
2022/01/29 14:36:07;;;;;;;17.83;3.97;;;21.70;64.70;;;;;;7808096;28;20266;-51
2022/01/29 14:39:52;;;;;;;13.85;3.97;;;21.80;64.60;;;;;;7829751;28;20214;-53
2022/01/29 14:43:38;;;;;;;14.27;3.67;;;21.90;64.40;;;;;;7838750;28;20178;-51
2022/01/29 14:47:23;;;;;;;14.48;3.67;;;22.00;64.40;;;;;;7838510;28;20197;-56
2022/01/29 14:51:09;;;;;;;27.30;3.63;;;22.10;64.40;;;;;;7838352;28;20209;-53
2022/01/29 14:54:55;;;;;;;24.73;3.80;;;22.20;64.40;;;;;;7838475;28;20180;-56
2022/01/29 14:58:40;;;;;;;13.27;3.88;;;22.20;64.30;;;;;;7838041;28;20726;-52
2022/01/29 15:02:26;;;;;;;20.25;3.78;;;22.30;64.40;;;;;;7838361;28;20192;-51
2022/01/29 15:06:12;;;;;;;19.70;3.50;;;22.30;64.40;;;;;;7838375;28;20209;-53
2022/01/29 15:09:58;;;;;;;17.67;3.65;;;22.30;64.30;;;;;;7837261;28;20694;-53
2022/01/29 15:13:44;;;;;;;19.90;3.97;;;22.30;64.20;;;;;;7838184;28;20182;-54
2022/01/29 15:17:29;;;;;;;17.27;3.50;;;22.30;64.30;;;;;;7837981;28;20292;-56
2022/01/29 15:21:15;;;;;;;19.63;4.18;;;22.30;64.30;;;;;;7838080;28;20208;-52
2022/01/29 15:25:01;;;;;;;20.05;4.30;;;22.30;64.30;;;;;;7838236;28;20384;-54
2022/01/29 15:28:47;;;;;;;19.05;4.10;;;22.30;64.30;;;;;;7837597;28;20205;-52
2022/01/29 15:32:34;;;;;;;21.60;3.85;;;22.20;64.40;;;;;;7838052;28;20193;-54
2022/01/29 15:36:20;;;;;;;21.30;4.07;;;22.30;64.50;;;;;;7837909;28;20178;-52
2022/01/29 15:40:06;;;;;;;20.55;4.38;;;22.30;64.50;;;;;;7837503;28;20304;-55
2022/01/29 15:43:52;;;;;;;19.42;3.95;;;22.20;64.50;;;;;;7837831;28;20178;-56
2022/01/29 15:47:37;;;;;;;25.10;4.47;;;22.20;64.50;;;;;;7837393;28;20197;-56
2022/01/29 15:51:23;;;;;;;24.85;4.72;;;22.20;64.70;;;;;;7837472;28;20198;-55
2022/01/29 15:55:08;;;;;;;26.05;5.22;;;22.20;64.60;;;;;;7837521;28;20182;-56
2022/01/29 15:58:54;;;;;;;26.90;5.32;;;22.10;64.70;;;;;;7835816;28;20579;-52
2022/01/29 16:02:39;;;;;;;26.15;5.38;;;22.10;64.70;;;;;;7837642;28;20182;-55
2022/01/29 16:06:25;;;;;;;37.53;5.70;;;22.10;64.70;;;;;;7837566;28;20181;-52
2022/01/29 16:10:10;;;;;;;36.47;6.18;;;22.10;64.70;;;;;;7837077;28;20320;-55
2022/01/29 16:13:56;;;;;;;31.30;5.97;;;22.00;64.70;;;;;;7837313;28;20747;-52
2022/01/29 16:17:41;;;;;;;50.92;7.07;;;22.00;64.70;;;;;;7836913;28;20202;-51
2022/01/29 16:21:29;;;;;;;37.28;6.13;;;22.00;64.70;;;;;;7841095;28;20197;-53
2022/01/29 16:25:15;;;;;;;60.95;9.98;;;21.90;64.70;;;;;;7841945;28;20710;-54
2022/01/29 16:29:00;;;;;;;41.33;8.67;;;21.90;64.70;;;;;;7840925;28;20818;-54
2022/01/29 16:32:46;;;;;;;235.48;32.33;;;21.80;63.20;;;;;;7842586;28;20274;-52
2022/01/29 16:36:31;;;;;;;124.22;17.25;;;21.50;59.80;;;;;;7836353;28;20185;-52
2022/01/29 16:40:17;;;;;;;105.82;15.43;;;21.40;62.90;;;;;;7812241;28;20232;-51
2022/01/29 16:44:02;;;;;;;56.25;10.35;;;21.40;63.50;;;;;;7823546;28;20193;-51
2022/01/29 16:47:49;;;;;;;74.32;12.75;;;21.50;63.90;;;;;;7834917;28;20212;-52
2022/01/29 16:51:34;;;;;;;59.53;9.40;;;21.60;64.20;;;;;;7841795;28;20198;-51
2022/01/29 16:55:20;;;;;;;58.92;8.65;;;21.70;64.40;;;;;;7841849;28;20219;-55
2022/01/29 16:59:05;;;;;;;63.58;10.60;;;21.70;64.40;;;;;;7841205;28;20220;-50
2022/01/29 17:02:51;;;;;;;74.20;10.95;;;21.80;64.50;;;;;;7816515;28;20189;-50
2022/01/29 17:06:36;;;;;;;92.53;13.80;;;21.80;64.70;;;;;;7812060;28;20197;-55
2022/01/29 17:10:22;;;;;;;79.63;12.52;;;21.80;65.10;;;;;;7810057;28;20203;-51
2022/01/29 17:14:08;;;;;;;62.13;10.25;;;21.90;66.00;;;;;;7810339;28;20202;-52
2022/01/29 17:17:53;;;;;;;71.20;9.65;;;21.90;66.20;;;;;;7809901;28;20214;-54
2022/01/29 17:21:39;;;;;;;63.95;9.98;;;22.00;66.40;;;;;;7810176;28;20236;-52
2022/01/29 17:25:24;;;;;;;52.45;9.77;;;22.20;66.10;;;;;;7810136;28;20171;-52
2022/01/29 17:29:10;;;;;;;59.00;10.13;;;22.20;66.40;;;;;;7809632;28;20210;-51
2022/01/29 17:32:55;;;;;;;50.85;9.50;;;22.30;66.50;;;;;;7809234;28;20277;-51
2022/01/29 17:36:41;;;;;;;54.90;9.40;;;22.50;66.20;;;;;;7809668;28;20183;-55
2022/01/29 17:40:26;;;;;;;41.58;8.02;;;22.60;66.10;;;;;;7809302;28;20709;-53
2022/01/29 17:44:12;;;;;;;42.63;8.50;;;22.70;65.90;;;;;;7809553;28;20270;-51
2022/01/29 17:47:57;;;;;;;34.67;7.00;;;22.80;65.80;;;;;;7809099;28;20661;-56
2022/01/29 17:51:43;;;;;;;34.00;6.20;;;22.80;65.40;;;;;;7809333;28;20210;-53
2022/01/29 17:55:35;;;;;;;36.22;5.85;;;22.80;65.00;;;;;;7809257;28;20210;-55
2022/01/29 17:59:21;;;;;;;33.63;6.30;;;22.80;65.40;;;;;;7808900;28;20302;-54
2022/01/29 18:03:07;;;;;;;34.08;6.32;;;22.80;65.40;;;;;;7809274;28;20648;-53
2022/01/29 18:06:53;;;;;;;22.88;4.53;;;22.80;65.00;;;;;;7809051;28;20191;-50
2022/01/29 18:10:38;;;;;;;24.33;5.13;;;22.80;65.10;;;;;;7808430;28;20195;-51
2022/01/29 18:14:24;;;;;;;22.95;4.03;;;22.80;65.30;;;;;;7808655;28;20545;-52
2022/01/29 18:18:09;;;;;;;18.30;4.70;;;22.90;65.60;;;;;;7808225;28;20222;-50
2022/01/29 18:21:55;;;;;;;19.05;4.53;;;22.90;65.40;;;;;;7808786;28;20236;-51
2022/01/29 18:25:41;;;;;;;20.92;4.10;;;23.00;65.40;;;;;;7808789;28;20667;-53
2022/01/29 18:29:28;;;;;;;14.65;3.65;;;23.00;65.20;;;;;;7808004;28;20206;-50
2022/01/29 18:33:17;;;;;;;12.43;2.63;;;23.00;65.00;;;;;;7808254;28;20649;-51
2022/01/29 18:37:02;;;;;;;18.90;3.22;;;22.90;64.70;;;;;;7815387;28;20796;-52
2022/01/29 18:40:52;;;;;;;16.17;3.50;;;23.00;65.10;;;;;;7838568;28;20224;-51
2022/01/29 18:44:39;;;;;;;17.50;3.20;;;22.90;65.10;;;;;;7817566;28;20186;-50
2022/01/29 18:48:25;;;;;;;29.80;3.75;;;22.90;64.80;;;;;;7807255;28;20284;-52
2022/01/29 18:52:11;;;;;;;26.00;3.97;;;22.90;65.20;;;;;;7807615;28;20186;-53
2022/01/29 18:55:56;;;;;;;28.52;3.70;;;22.80;65.10;;;;;;7807663;28;20185;-50
2022/01/29 18:59:42;;;;;;;27.23;4.22;;;22.90;65.20;;;;;;7807314;28;20221;-50
2022/01/29 19:03:27;;;;;;;26.05;3.97;;;22.90;65.20;;;;;;7807413;28;20197;-51
2022/01/29 19:07:13;;;;;;;20.55;3.45;;;22.80;65.10;;;;;;7807406;28;20217;-56
2022/01/29 19:10:59;;;;;;;15.73;3.10;;;22.80;65.10;;;;;;7806938;28;20198;-53
2022/01/29 19:14:51;;;;;;;21.45;3.03;;;22.80;65.10;;;;;;7807279;28;20185;-55
2022/01/29 19:18:37;;;;;;;18.83;3.17;;;22.80;65.10;;;;;;7806877;28;20211;-51
2022/01/29 19:22:24;;;;;;;16.17;3.47;;;22.70;66.10;;;;;;7807206;28;20170;-55
2022/01/29 19:26:17;;;;;;;20.60;3.92;;;22.70;65.30;;;;;;7807086;28;20166;-54
2022/01/29 19:30:03;;;;;;;29.40;3.33;;;22.70;65.50;;;;;;7806794;28;20198;-50
2022/01/29 19:33:49;;;;;;;19.23;3.22;;;22.70;66.00;;;;;;7807028;28;20182;-54
2022/01/29 19:37:35;;;;;;;17.98;4.10;;;22.70;66.40;;;;;;7831430;28;20209;-51
2022/01/29 19:41:22;;;;;;;26.10;3.00;;;22.70;66.60;;;;;;7837718;28;20690;-54
2022/01/29 19:45:11;;;;;;;22.25;3.17;;;22.60;67.00;;;;;;7837955;28;20247;-53
2022/01/29 19:48:57;;;;;;;21.35;3.28;;;22.60;67.10;;;;;;7837376;28;20538;-55